createdAt,value
2019-05-09T00:01:33.545Z,79.79
2019-05-09T00:04:05.513Z,79.50
2019-05-09T00:06:36.387Z,79.58
2019-05-09T00:09:07.422Z,79.68
2019-05-09T00:11:38.363Z,79.70
2019-05-09T00:14:09.505Z,79.77
2019-05-09T00:16:40.407Z,79.85
2019-05-09T00:19:13.560Z,80.16
2019-05-09T00:21:54.810Z,80.18
2019-05-09T00:24:26.783Z,80.21
2019-05-09T00:26:58.307Z,80.23
2019-05-09T00:29:43.756Z,80.40
2019-05-09T00:32:19.257Z,80.58
2019-05-09T00:34:53.273Z,80.43
2019-05-09T00:37:25.936Z,80.67
2019-05-09T00:39:56.804Z,80.94
2019-05-09T00:42:27.569Z,81.25
2019-05-09T00:45:00.179Z,81.45
2019-05-09T00:47:33.018Z,81.52
2019-05-09T00:50:05.220Z,81.89
2019-05-09T00:52:36.417Z,81.97
2019-05-09T00:55:08.866Z,82.93
2019-05-09T00:57:39.470Z,83.51
2019-05-09T01:00:17.193Z,83.89
2019-05-09T01:02:47.906Z,84.09
2019-05-09T01:05:20.161Z,84.63
2019-05-09T01:07:50.700Z,85.22
2019-05-09T01:10:23.510Z,85.20
2019-05-09T01:12:56.357Z,85.41
2019-05-09T01:15:27.399Z,85.60
2019-05-09T01:17:58.337Z,86.04
2019-05-09T01:20:29.580Z,85.64
2019-05-09T01:23:03.504Z,86.03
2019-05-09T01:25:34.149Z,86.48
2019-05-09T01:28:05.255Z,86.39
2019-05-09T01:30:39.372Z,86.80
2019-05-09T01:33:30.685Z,86.80
2019-05-09T01:36:03.621Z,86.98
2019-05-09T01:38:34.084Z,87.23
2019-05-09T01:41:04.825Z,87.34
2019-05-09T01:43:35.543Z,87.74
2019-05-09T01:46:06.703Z,87.61
2019-05-09T01:48:40.092Z,87.87
2019-05-09T01:51:13.729Z,87.75
2019-05-09T01:53:45.456Z,88.14
2019-05-09T01:56:18.742Z,87.94
2019-05-09T01:58:49.710Z,88.32
2019-05-09T02:01:23.830Z,88.22
2019-05-09T02:03:55.550Z,88.33
2019-05-09T02:06:26.593Z,88.36
2019-05-09T02:08:57.425Z,88.28
2019-05-09T02:11:41.659Z,88.51
2019-05-09T02:14:00.963Z,88.53
2019-05-09T02:16:33.837Z,88.67
2019-05-09T02:19:06.559Z,88.68
2019-05-09T02:21:38.870Z,88.99
2019-05-09T02:24:09.699Z,88.99
2019-05-09T02:26:40.791Z,88.99
2019-05-09T02:29:13.652Z,88.99
2019-05-09T02:31:44.825Z,88.80
2019-05-09T02:34:15.603Z,89.09
2019-05-09T02:36:49.599Z,89.36
2019-05-09T02:39:21.377Z,89.01
2019-05-09T02:42:07.638Z,89.24
2019-05-09T02:44:24.673Z,89.18
2019-05-09T02:46:58.865Z,89.20
2019-05-09T02:49:31.373Z,89.63
2019-05-09T02:52:02.948Z,89.69
2019-05-09T02:54:34.419Z,89.92
2019-05-09T02:57:09.309Z,90.27
2019-05-09T02:59:44.815Z,90.47
2019-05-09T03:02:19.544Z,90.86
2019-05-09T03:04:52.038Z,91.01
2019-05-09T03:07:24.513Z,91.62
2019-05-09T03:09:58.295Z,91.93
2019-05-09T03:12:35.198Z,92.16
2019-05-09T03:15:01.426Z,92.47
2019-05-09T03:17:31.849Z,92.63
2019-05-09T03:20:04.930Z,92.73
2019-05-09T03:22:39.267Z,92.86
2019-05-09T03:25:09.312Z,92.95
2019-05-09T03:27:42.143Z,93.05
2019-05-09T03:30:20.373Z,92.94
2019-05-09T03:32:49.143Z,93.00
2019-05-09T03:35:20.082Z,92.88
2019-05-09T03:38:08.208Z,92.92
2019-05-09T03:40:39.674Z,92.85
2019-05-09T03:43:10.913Z,92.86
2019-05-09T03:45:43.493Z,92.73
2019-05-09T03:48:28.441Z,92.73
2019-05-09T03:51:01.219Z,92.77
2019-05-09T03:53:31.973Z,92.76
2019-05-09T03:56:04.544Z,92.62
2019-05-09T03:58:38.585Z,92.80
2019-05-09T04:01:10.903Z,92.53
2019-05-09T04:03:41.765Z,92.83
2019-05-09T04:06:12.698Z,92.79
2019-05-09T04:08:43.633Z,92.75
2019-05-09T04:11:15.159Z,92.86
2019-05-09T04:13:51.857Z,92.73
2019-05-09T04:16:22.686Z,92.81
2019-05-09T04:18:53.524Z,93.10
2019-05-09T04:21:27.851Z,92.91
2019-05-09T04:24:00.520Z,92.74
2019-05-09T04:26:39.035Z,92.95
2019-05-09T04:29:09.970Z,93.12
2019-05-09T04:31:41.017Z,92.92
2019-05-09T04:34:11.883Z,92.83
2019-05-09T04:36:42.651Z,92.85
2019-05-09T04:39:21.029Z,92.57
2019-05-09T04:41:48.633Z,92.57
2019-05-09T04:44:37.496Z,92.61
2019-05-09T04:47:08.844Z,92.21
2019-05-09T04:49:45.002Z,92.16
2019-05-09T04:52:14.026Z,92.19
2019-05-09T04:54:44.636Z,91.71
2019-05-09T04:57:17.704Z,91.94
2019-05-09T04:59:49.069Z,91.64
2019-05-09T05:02:27.439Z,91.72
2019-05-09T05:04:59.123Z,91.66
2019-05-09T05:07:29.969Z,91.82
2019-05-09T05:10:02.051Z,91.72
2019-05-09T05:12:33.179Z,91.95
2019-05-09T05:15:08.113Z,91.55
2019-05-09T05:17:39.458Z,91.53
2019-05-09T05:20:14.073Z,91.53
2019-05-09T05:22:47.829Z,91.66
2019-05-09T05:25:19.324Z,91.73
2019-05-09T05:27:50.065Z,91.76
2019-05-09T05:30:21.820Z,91.92
2019-05-09T05:33:00.231Z,92.07
2019-05-09T05:35:34.033Z,92.05
2019-05-09T05:38:05.487Z,91.91
2019-05-09T05:40:43.661Z,92.02
2019-05-09T05:43:10.434Z,92.56
2019-05-09T05:45:42.899Z,92.70
2019-05-09T05:48:21.416Z,92.06
2019-05-09T05:50:57.775Z,92.05
2019-05-09T05:53:28.414Z,92.24
2019-05-09T05:55:59.144Z,92.29
2019-05-09T05:58:29.897Z,92.30
2019-05-09T06:01:04.522Z,92.49
2019-05-09T06:03:37.656Z,92.56
2019-05-09T06:06:09.049Z,92.54
2019-05-09T06:08:40.004Z,92.77
2019-05-09T06:11:13.440Z,93.07
2019-05-09T06:13:56.237Z,92.69
2019-05-09T06:16:22.241Z,92.95
2019-05-09T06:18:53.273Z,93.15
2019-05-09T06:21:25.373Z,92.88
2019-05-09T06:23:58.262Z,92.94
2019-05-09T06:26:29.213Z,92.70
2019-05-09T06:29:01.905Z,92.31
2019-05-09T06:31:32.645Z,92.04
2019-05-09T06:34:03.593Z,91.65
2019-05-09T06:36:34.015Z,91.80
2019-05-09T06:39:08.670Z,91.39
2019-05-09T06:41:40.436Z,90.84
2019-05-09T06:44:17.027Z,90.93
2019-05-09T06:46:49.836Z,91.35
2019-05-09T06:49:31.254Z,90.96
2019-05-09T06:51:58.064Z,91.12
2019-05-09T06:54:29.033Z,90.92
2019-05-09T06:56:59.760Z,90.74
2019-05-09T06:59:30.244Z,90.54
2019-05-09T07:02:02.466Z,90.17
2019-05-09T07:04:37.855Z,89.94
2019-05-09T07:07:09.626Z,89.24
2019-05-09T07:09:44.795Z,89.37
2019-05-09T07:12:17.908Z,88.72
2019-05-09T07:14:49.919Z,88.66
2019-05-09T07:17:21.463Z,88.49
2019-05-09T07:19:51.839Z,88.60
2019-05-09T07:22:28.251Z,88.56
2019-05-09T07:25:06.498Z,88.59
2019-05-09T07:27:34.737Z,86.90
2019-05-09T07:30:17.963Z,87.04
2019-05-09T07:32:50.331Z,86.49
2019-05-09T07:35:21.177Z,85.82
2019-05-09T07:37:52.706Z,85.47
2019-05-09T07:40:26.878Z,85.72
2019-05-09T07:42:58.183Z,86.16
2019-05-09T07:45:28.207Z,85.64
2019-05-09T07:48:00.270Z,85.38
2019-05-09T07:50:30.579Z,84.38
2019-05-09T07:53:03.257Z,83.87
2019-05-09T07:55:33.679Z,80.57
2019-05-09T07:58:04.716Z,80.24
2019-05-09T08:00:38.554Z,78.88
2019-05-09T08:03:13.107Z,77.13
2019-05-09T08:05:41.728Z,77.53
2019-05-09T08:08:18.595Z,78.41
2019-05-09T08:10:49.149Z,77.10
2019-05-09T08:13:21.531Z,78.80
2019-05-09T08:15:51.804Z,79.83
2019-05-09T08:18:22.561Z,78.81
2019-05-09T08:20:53.500Z,78.90
2019-05-09T08:23:24.570Z,78.53
2019-05-09T08:25:57.895Z,78.63
2019-05-09T08:28:28.456Z,79.46
2019-05-09T08:30:59.426Z,80.06
2019-05-09T08:33:30.267Z,81.12
2019-05-09T08:36:02.189Z,81.67
2019-05-09T08:38:32.819Z,81.01
2019-05-09T08:41:13.895Z,78.65
2019-05-09T08:43:45.182Z,78.03
2019-05-09T08:46:18.350Z,79.08
2019-05-09T08:48:49.288Z,78.71
2019-05-09T08:51:36.688Z,79.65
2019-05-09T08:54:04.045Z,79.36
2019-05-09T08:56:34.879Z,79.75
2019-05-09T08:59:08.252Z,79.94
2019-05-09T09:02:04.948Z,79.84
2019-05-09T09:04:10.659Z,79.59
2019-05-09T09:06:41.376Z,79.48
2019-05-09T09:09:12.327Z,78.18
2019-05-09T09:11:43.064Z,78.21
2019-05-09T09:14:15.198Z,76.17
2019-05-09T09:16:47.577Z,76.99
2019-05-09T09:19:17.977Z,77.59
2019-05-09T09:21:49.670Z,77.02
2019-05-09T09:24:20.410Z,79.84
2019-05-09T09:26:52.372Z,79.85
2019-05-09T09:29:23.221Z,79.00
2019-05-09T09:31:54.048Z,78.72
2019-05-09T09:34:27.115Z,78.64
2019-05-09T09:37:03.566Z,78.45
2019-05-09T09:39:31.495Z,78.04
2019-05-09T09:42:03.219Z,77.81
2019-05-09T09:44:33.654Z,77.83
2019-05-09T09:47:04.479Z,78.16
2019-05-09T09:49:38.859Z,78.40
2019-05-09T09:52:09.534Z,77.67
2019-05-09T09:54:40.682Z,77.65
2019-05-09T09:57:11.304Z,77.64
2019-05-09T09:59:49.706Z,77.47
2019-05-09T10:02:21.984Z,78.55
2019-05-09T10:04:52.919Z,78.88
2019-05-09T10:07:23.694Z,78.73
2019-05-09T10:09:54.688Z,79.19
2019-05-09T10:12:25.632Z,80.09
2019-05-09T10:15:03.625Z,79.99
2019-05-09T10:17:43.275Z,80.29
2019-05-09T10:20:18.900Z,80.16
2019-05-09T10:22:58.559Z,79.65
2019-05-09T10:25:21.718Z,78.90
2019-05-09T10:27:53.268Z,78.20
2019-05-09T10:30:31.718Z,77.30
2019-05-09T10:33:02.339Z,76.25
2019-05-09T10:35:33.389Z,76.69
2019-05-09T10:38:04.181Z,77.34
2019-05-09T10:40:34.917Z,77.87
2019-05-09T10:43:08.134Z,77.35
2019-05-09T10:45:57.798Z,78.71
2019-05-09T10:48:28.949Z,78.37
2019-05-09T10:51:03.840Z,77.67
2019-05-09T10:53:32.029Z,77.98
2019-05-09T10:56:02.761Z,77.04
2019-05-09T10:58:33.592Z,77.72
2019-05-09T11:01:04.324Z,78.16
2019-05-09T11:03:37.546Z,78.50
2019-05-09T11:06:08.965Z,77.68
2019-05-09T11:08:39.710Z,78.19
2019-05-09T11:11:10.639Z,78.03
2019-05-09T11:13:41.487Z,78.41
2019-05-09T11:16:12.619Z,79.28
2019-05-09T11:18:43.447Z,78.36
2019-05-09T11:21:14.279Z,77.69
2019-05-09T11:23:45.029Z,77.92
2019-05-09T11:26:17.919Z,78.56
2019-05-09T11:28:51.682Z,78.46
2019-05-09T11:31:22.333Z,78.49
2019-05-09T11:33:57.656Z,78.72
2019-05-09T11:36:27.382Z,79.06
2019-05-09T11:39:00.491Z,78.95
2019-05-09T11:41:30.592Z,78.66
2019-05-09T11:44:01.532Z,78.89
2019-05-09T11:46:32.562Z,79.46
2019-05-09T11:49:07.993Z,81.30
2019-05-09T11:51:40.377Z,80.23
2019-05-09T11:54:10.902Z,81.06
2019-05-09T11:56:41.498Z,82.33
2019-05-09T11:59:12.371Z,82.55
2019-05-09T12:01:43.319Z,83.73
2019-05-09T12:04:14.364Z,82.23
2019-05-09T12:06:45.075Z,81.80
2019-05-09T12:09:15.925Z,82.43
2019-05-09T12:11:48.330Z,82.03
2019-05-09T12:14:19.422Z,81.75
2019-05-09T12:16:50.170Z,81.28
2019-05-09T12:19:21.401Z,81.67
2019-05-09T12:21:52.546Z,82.83
2019-05-09T12:24:24.778Z,83.14
2019-05-09T12:26:57.521Z,83.52
2019-05-09T12:29:28.791Z,82.47
2019-05-09T12:32:01.006Z,83.17
2019-05-09T12:34:31.635Z,81.42
2019-05-09T12:37:02.261Z,80.70
2019-05-09T12:39:34.327Z,80.53
2019-05-09T12:42:05.160Z,81.91
2019-05-09T12:44:37.127Z,81.21
2019-05-09T12:47:08.055Z,83.11
2019-05-09T12:49:38.796Z,83.46
2019-05-09T12:52:10.037Z,83.50
2019-05-09T12:54:41.891Z,81.77
2019-05-09T12:57:12.733Z,82.98
2019-05-09T12:59:48.932Z,82.87
2019-05-09T13:02:17.794Z,83.43
2019-05-09T13:04:50.220Z,83.72
2019-05-09T13:07:20.809Z,83.30
2019-05-09T13:09:52.796Z,83.52
2019-05-09T13:12:24.399Z,84.87
2019-05-09T13:14:55.007Z,84.91
2019-05-09T13:17:39.585Z,83.89
2019-05-09T13:20:11.544Z,83.80
2019-05-09T13:22:42.068Z,83.65
2019-05-09T13:25:13.417Z,84.03
2019-05-09T13:27:43.831Z,83.29
2019-05-09T13:30:15.438Z,82.57
2019-05-09T13:32:48.427Z,81.53
2019-05-09T13:35:20.034Z,82.56
2019-05-09T13:37:52.507Z,82.29
2019-05-09T13:40:24.377Z,83.02
2019-05-09T13:42:58.375Z,83.76
2019-05-09T13:45:28.626Z,83.72
2019-05-09T13:47:59.433Z,84.09
2019-05-09T13:50:30.570Z,83.99
2019-05-09T13:53:01.614Z,84.43
2019-05-09T13:55:32.453Z,83.41
2019-05-09T13:58:03.495Z,82.44
2019-05-09T14:00:34.529Z,81.35
2019-05-09T14:03:08.190Z,80.02
2019-05-09T14:05:38.967Z,78.80
2019-05-09T14:08:11.754Z,78.22
2019-05-09T14:10:42.471Z,79.86
2019-05-09T14:13:14.311Z,78.99
2019-05-09T14:15:45.031Z,78.94
2019-05-09T14:18:16.661Z,80.13
2019-05-09T14:20:48.691Z,80.63
2019-05-09T14:23:19.555Z,80.22
2019-05-09T14:25:51.966Z,80.50
2019-05-09T14:28:22.722Z,81.23
2019-05-09T14:30:54.274Z,82.26
2019-05-09T14:33:24.800Z,81.53
2019-05-09T14:35:59.418Z,81.17
2019-05-09T14:38:29.750Z,81.81
2019-05-09T14:41:00.681Z,82.32
2019-05-09T14:43:31.523Z,82.28
2019-05-09T14:46:02.309Z,82.97
2019-05-09T14:48:33.403Z,83.82
2019-05-09T14:51:04.328Z,83.59
2019-05-09T14:53:38.909Z,82.24
2019-05-09T14:56:09.005Z,80.48
2019-05-09T14:58:39.969Z,80.58
2019-05-09T15:01:10.799Z,79.68
2019-05-09T15:03:42.394Z,79.46
2019-05-09T15:06:13.227Z,79.41
2019-05-09T15:08:44.066Z,79.13
2019-05-09T15:11:14.896Z,78.76
2019-05-09T15:13:47.586Z,78.92
2019-05-09T15:16:18.584Z,79.11
2019-05-09T15:18:49.180Z,78.88
2019-05-09T15:21:19.976Z,78.20
2019-05-09T15:23:50.712Z,79.34
2019-05-09T15:26:22.713Z,79.45
2019-05-09T15:28:53.814Z,80.25
2019-05-09T15:31:24.650Z,80.34
2019-05-09T15:33:55.382Z,80.80
2019-05-09T15:36:26.108Z,81.17
2019-05-09T15:38:59.143Z,80.52
2019-05-09T15:41:28.909Z,79.83
2019-05-09T15:43:59.647Z,80.62
2019-05-09T15:46:32.013Z,80.99
2019-05-09T15:49:02.540Z,81.45
2019-05-09T15:51:33.280Z,81.44
2019-05-09T15:54:04.113Z,81.38
2019-05-09T15:56:34.838Z,80.72
2019-05-09T15:59:05.676Z,80.35
2019-05-09T16:01:38.508Z,80.20
2019-05-09T16:04:09.155Z,80.41
2019-05-09T16:06:40.021Z,79.96
2019-05-09T16:09:12.155Z,80.11
2019-05-09T16:11:43.226Z,80.20
2019-05-09T16:14:14.063Z,80.88
2019-05-09T16:16:47.857Z,80.79
2019-05-09T16:19:17.885Z,81.98
2019-05-09T16:21:48.720Z,81.85
2019-05-09T16:24:19.453Z,82.48
2019-05-09T16:26:51.008Z,82.09
2019-05-09T16:29:21.775Z,82.28
2019-05-09T16:31:52.566Z,82.22
2019-05-09T16:34:23.209Z,82.23
2019-05-09T16:36:53.728Z,81.36
2019-05-09T16:39:24.661Z,81.92
2019-05-09T16:41:55.357Z,81.00
2019-05-09T16:44:26.340Z,81.25
2019-05-09T16:46:57.635Z,81.20
2019-05-09T16:49:29.321Z,79.80
2019-05-09T16:52:00.170Z,79.42
2019-05-09T16:54:32.410Z,79.78
2019-05-09T16:57:03.168Z,80.21
2019-05-09T16:59:33.732Z,80.84
2019-05-09T17:02:17.900Z,81.68
2019-05-09T17:04:38.676Z,82.18
2019-05-09T17:07:09.245Z,82.64
2019-05-09T17:09:43.298Z,82.45
2019-05-09T17:12:14.936Z,82.48
2019-05-09T17:14:45.771Z,83.18
2019-05-09T17:17:18.024Z,83.23
2019-05-09T17:19:49.759Z,82.49
2019-05-09T17:22:38.354Z,80.96
2019-05-09T17:25:09.390Z,81.19
2019-05-09T17:27:39.913Z,81.28
2019-05-09T17:30:12.105Z,81.28
2019-05-09T17:32:42.930Z,81.71
2019-05-09T17:35:14.363Z,81.78
2019-05-09T17:37:45.129Z,81.95
2019-05-09T17:40:16.946Z,82.32
2019-05-09T17:42:48.504Z,82.36
2019-05-09T17:45:19.365Z,82.75
2019-05-09T17:47:50.075Z,83.11
2019-05-09T17:50:21.112Z,83.14
2019-05-09T17:52:52.804Z,83.49
2019-05-09T17:55:23.906Z,83.73
2019-05-09T17:57:58.646Z,84.08
2019-05-09T18:00:29.495Z,83.98
2019-05-09T18:03:00.001Z,84.12
2019-05-09T18:05:30.943Z,83.94
2019-05-09T18:08:01.770Z,84.30
2019-05-09T18:10:32.911Z,84.13
2019-05-09T18:13:03.747Z,84.32
2019-05-09T18:15:34.684Z,83.91
2019-05-09T18:18:05.413Z,83.90
2019-05-09T18:20:37.972Z,84.10
2019-05-09T18:23:08.514Z,84.21
2019-05-09T18:25:39.361Z,83.99
2019-05-09T18:28:09.994Z,83.46
2019-05-09T18:30:40.420Z,83.57
2019-05-09T18:33:30.118Z,83.14
2019-05-09T18:36:02.761Z,83.08
2019-05-09T18:38:38.763Z,83.34
2019-05-09T18:41:10.265Z,83.11
2019-05-09T18:43:41.923Z,83.09
2019-05-09T18:46:12.761Z,83.44
2019-05-09T18:48:43.449Z,83.51
2019-05-09T18:51:14.327Z,83.66
2019-05-09T18:53:45.258Z,83.95
2019-05-09T18:56:16.226Z,84.26
2019-05-09T18:58:46.932Z,84.10
2019-05-09T19:01:17.769Z,84.73
2019-05-09T19:03:48.424Z,84.65
2019-05-09T19:06:19.229Z,84.90
2019-05-09T19:08:49.965Z,84.87
2019-05-09T19:11:22.012Z,84.84
2019-05-09T19:13:53.158Z,84.89
2019-05-09T19:16:28.613Z,84.93
2019-05-09T19:19:17.545Z,84.74
2019-05-09T19:21:49.737Z,84.65
2019-05-09T19:24:20.361Z,84.76
2019-05-09T19:26:50.900Z,85.20
2019-05-09T19:29:21.318Z,85.57
2019-05-09T19:31:52.164Z,85.70
2019-05-09T19:34:22.987Z,86.08
2019-05-09T19:36:55.361Z,86.16
2019-05-09T19:39:25.753Z,86.37
2019-05-09T19:41:56.392Z,86.38
2019-05-09T19:44:29.923Z,86.57
2019-05-09T19:47:01.925Z,86.63
2019-05-09T19:49:33.219Z,86.69
2019-05-09T19:52:04.364Z,86.63
2019-05-09T19:54:35.402Z,86.80
2019-05-09T19:57:06.235Z,86.94
2019-05-09T19:59:36.596Z,87.23
2019-05-09T20:02:09.753Z,87.33
2019-05-09T20:04:40.585Z,87.50
2019-05-09T20:07:11.278Z,87.86
2019-05-09T20:09:43.696Z,88.11
2019-05-09T20:12:34.387Z,88.34
2019-05-09T20:15:06.635Z,88.54
2019-05-09T20:17:37.770Z,88.74
2019-05-09T20:20:10.697Z,88.81
2019-05-09T20:22:52.668Z,88.59
2019-05-09T20:25:15.663Z,88.41
2019-05-09T20:27:46.322Z,88.01
2019-05-09T20:30:17.407Z,87.73
2019-05-09T20:32:47.932Z,87.63
2019-05-09T20:35:18.698Z,87.33
2019-05-09T20:37:50.854Z,87.37
2019-05-09T20:40:21.966Z,87.45
2019-05-09T20:42:53.170Z,87.72
2019-05-09T20:45:24.258Z,87.83
2019-05-09T20:47:55.083Z,87.96
2019-05-09T20:50:26.130Z,88.11
2019-05-09T20:53:08.969Z,88.45
2019-05-09T20:55:31.483Z,88.75
2019-05-09T20:58:02.833Z,88.98
2019-05-09T21:00:33.887Z,89.05
2019-05-09T21:03:07.971Z,89.25
2019-05-09T21:05:37.279Z,89.44
2019-05-09T21:08:08.520Z,89.65
2019-05-09T21:10:39.664Z,89.89
2019-05-09T21:13:10.721Z,89.98
2019-05-09T21:15:41.798Z,90.08
2019-05-09T21:18:13.114Z,90.12
2019-05-09T21:20:44.010Z,90.28
2019-05-09T21:23:24.437Z,90.31
2019-05-09T21:25:49.177Z,90.49
2019-05-09T21:28:19.913Z,90.51
2019-05-09T21:30:51.158Z,90.56
2019-05-09T21:33:22.910Z,90.72
2019-05-09T21:35:53.953Z,90.80
2019-05-09T21:38:24.888Z,90.93
2019-05-09T21:40:55.619Z,90.98
2019-05-09T21:43:26.660Z,90.91
2019-05-09T21:45:57.493Z,90.81
2019-05-09T21:48:32.121Z,90.86
2019-05-09T21:51:03.474Z,90.63
2019-05-09T21:53:41.066Z,90.22
2019-05-09T21:56:07.933Z,90.07
2019-05-09T21:58:38.838Z,89.93
2019-05-09T22:01:12.758Z,89.94
2019-05-09T22:03:43.683Z,89.92
2019-05-09T22:06:14.721Z,89.70
2019-05-09T22:08:46.378Z,89.57
2019-05-09T22:11:17.930Z,89.63
2019-05-09T22:13:48.445Z,89.46
2019-05-09T22:16:19.514Z,89.52
2019-05-09T22:18:50.428Z,89.59
2019-05-09T22:21:22.186Z,89.72
2019-05-09T22:23:57.149Z,89.94
2019-05-09T22:26:25.467Z,90.10
2019-05-09T22:28:56.535Z,90.03
2019-05-09T22:31:27.782Z,89.98
2019-05-09T22:33:58.556Z,89.88
2019-05-09T22:36:29.432Z,89.81
2019-05-09T22:39:00.488Z,89.76
2019-05-09T22:41:31.731Z,89.79
2019-05-09T22:44:03.186Z,89.80
2019-05-09T22:46:36.459Z,89.56
2019-05-09T22:49:07.306Z,88.92
2019-05-09T22:51:41.217Z,88.67
2019-05-09T22:54:13.382Z,88.10
2019-05-09T22:56:44.317Z,87.97
2019-05-09T22:59:15.517Z,87.86
2019-05-09T23:01:46.374Z,87.78
2019-05-09T23:04:17.126Z,87.75
2019-05-09T23:06:47.962Z,87.56
2019-05-09T23:09:18.704Z,87.37
2019-05-09T23:11:49.527Z,86.91
2019-05-09T23:14:20.367Z,86.84
2019-05-09T23:16:52.221Z,86.68
2019-05-09T23:19:22.857Z,86.55
2019-05-09T23:21:55.733Z,86.45
2019-05-09T23:24:28.969Z,86.36
2019-05-09T23:27:00.461Z,86.35
2019-05-09T23:29:31.178Z,86.49
2019-05-09T23:32:03.578Z,86.53
2019-05-09T23:34:35.336Z,86.63
2019-05-09T23:37:06.075Z,86.30
2019-05-09T23:39:41.715Z,86.21
2019-05-09T23:42:12.886Z,86.25
2019-05-09T23:44:44.002Z,86.30
2019-05-09T23:47:15.265Z,86.29
2019-05-09T23:49:46.817Z,86.38
2019-05-09T23:52:17.799Z,86.42
2019-05-09T23:55:06.899Z,86.42
2019-05-09T23:57:57.188Z,86.45
